Time;durP1;ratioP1;P1;durP2;ratioP2;P2;SDS_P1;SDS_P2;PMS_P1;PMS_P2;Temp;Humidity;BMP_temperature;BMP_pressure;BME280_temperature;BME280_humidity;BME280_pressure;Samples;Min_cycle;Max_cycle;Signal;HPM_P1;HPM_P2
2021/07/26 00:02:00;;;;;;;26.57;21.30;;;;;;;18.96;66.25;99694.34;2049175;86;27891;-63
2021/07/26 00:05:10;;;;;;;25.80;21.37;;;;;;;18.96;66.61;99687.08;2050966;86;28699;-64
2021/07/26 00:08:15;;;;;;;26.20;22.05;;;;;;;18.94;66.26;99683.66;2050951;86;31052;-63
2021/07/26 00:11:20;;;;;;;28.25;22.35;;;;;;;18.97;66.49;99686.56;2050739;86;32998;-64
2021/07/26 00:14:25;;;;;;;31.07;22.93;;;;;;;18.96;66.68;99681.66;2050493;86;29401;-65
2021/07/26 00:17:32;;;;;;;;;;;;;;;18.95;66.59;99678.58;2052984;85;27829;-65
2021/07/26 00:20:43;;;;;;;28.50;22.00;;;;;;;18.93;66.73;99676.48;2050226;86;28719;-64
2021/07/26 00:23:53;;;;;;;27.70;22.70;;;;;;;18.90;66.79;99671.33;2049838;86;31162;-64
2021/07/26 00:26:58;;;;;;;27.00;22.27;;;;;;;18.88;66.72;99665.19;2050563;86;32818;-64
2021/07/26 00:30:05;;;;;;;27.27;21.65;;;;;;;18.86;67.24;99667.22;2050696;86;29332;-64
2021/07/26 00:33:52;;;;;;;28.17;22.58;;;;;;;18.84;67.03;99662.44;2050682;86;27705;-64
2021/07/26 00:36:50;;;;;;;24.98;21.42;;;;;;;18.84;66.94;99670.58;2030843;86;28193;-63
2021/07/26 00:39:58;;;;;;;29.48;22.77;;;;;;;18.83;66.98;99663.44;2049145;86;30968;-64
2021/07/26 00:43:06;;;;;;;27.27;22.25;;;;;;;18.82;67.02;99667.15;2055794;85;32982;-63
2021/07/26 00:46:10;;;;;;;27.70;22.40;;;;;;;18.81;67.07;99666.79;2033462;86;30020;-64
2021/07/26 00:49:15;;;;;;;;;;;;;;;18.79;67.34;99670.14;2052650;86;28093;-64
2021/07/26 00:52:26;;;;;;;29.15;22.17;;;;;;;18.77;67.36;99677.09;2050793;86;28688;-63
2021/07/26 00:55:31;;;;;;;30.88;22.52;;;;;;;18.74;67.45;99676.50;2050828;86;31044;-62
2021/07/26 00:58:40;;;;;;;24.67;21.40;;;;;;;18.73;67.31;99668.88;2050595;86;33015;-63
2021/07/26 01:01:45;;;;;;;28.95;23.10;;;;;;;18.75;67.36;99675.02;2050957;86;29333;-63
2021/07/26 01:04:49;;;;;;;28.20;23.27;;;;;;;18.76;67.56;99675.38;2051210;86;27866;-63
2021/07/26 01:07:53;;;;;;;26.87;21.75;;;;;;;18.76;67.46;99667.72;2051226;86;28664;-64
2021/07/26 01:10:58;;;;;;;25.88;22.65;;;;;;;18.75;67.52;99661.94;2034081;86;35537;-63
2021/07/26 01:14:07;;;;;;;26.82;22.27;;;;;;;18.74;67.56;99658.86;2051279;86;33032;-64
2021/07/26 01:17:13;;;;;;;29.75;23.52;;;;;;;18.73;67.58;99662.09;2051073;85;29333;-63
2021/07/26 01:20:19;;;;;;;26.73;22.35;;;;;;;18.72;67.74;99660.38;2051245;86;27919;-63
2021/07/26 01:23:28;;;;;;;30.40;22.37;;;;;;;18.72;67.69;99660.86;2056283;85;28703;-64
2021/07/26 01:26:35;;;;;;;24.72;22.05;;;;;;;18.73;67.74;99679.73;2050607;86;27988;-62
2021/07/26 01:29:40;;;;;;;28.17;21.70;;;;;;;18.73;67.83;99667.52;2050817;86;33097;-63
2021/07/26 01:32:47;;;;;;;26.42;23.00;;;;;;;18.74;67.85;99662.45;2051120;86;29383;-64
2021/07/26 01:35:52;;;;;;;29.60;23.35;;;;;;;18.73;67.87;99659.38;2051258;86;27817;-64
2021/07/26 01:39:03;;;;;;;27.60;21.27;;;;;;;18.74;67.83;99655.66;2050871;86;28717;-64
2021/07/26 01:42:09;;;;;;;27.45;22.20;;;;;;;18.76;67.86;99660.94;2050769;86;31203;-63
2021/07/26 01:45:17;;;;;;;26.55;21.68;;;;;;;18.76;67.87;99650.95;2050980;86;33053;-64
2021/07/26 01:48:28;;;;;;;25.68;22.40;;;;;;;18.78;67.96;99653.51;2043855;86;29370;-64
2021/07/26 01:51:40;;;;;;;28.30;23.20;;;;;;;18.78;67.93;99651.63;2036471;87;27910;-65
2021/07/26 01:54:51;;;;;;;25.40;22.05;;;;;;;18.79;68.01;99643.85;2036388;87;28641;-64
2021/07/26 01:58:02;;;;;;;27.20;21.87;;;;;;;18.79;67.91;99639.78;2036060;86;27831;-64
2021/07/26 02:01:05;;;;;;;25.55;21.90;;;;;;;18.80;68.01;99644.20;2037594;87;33022;-64
2021/07/26 02:04:11;;;;;;;26.50;22.70;;;;;;;18.82;68.16;99661.20;2036191;86;29323;-64
2021/07/26 02:07:17;;;;;;;28.45;22.98;;;;;;;18.82;67.96;99663.92;2036284;87;27706;-64
2021/07/26 02:10:22;;;;;;;24.25;21.40;;;;;;;18.82;67.97;99659.84;2036215;87;28654;-65
2021/07/26 02:13:28;;;;;;;25.92;21.62;;;;;;;18.83;68.08;99668.86;2036282;87;31118;-65
2021/07/26 02:16:36;;;;;;;31.55;22.85;;;;;;;18.84;68.08;99677.36;2036079;86;33061;-65
2021/07/26 02:19:42;;;;;;;29.75;23.27;;;;;;;18.85;68.07;99676.84;2036151;86;29346;-65
2021/07/26 02:22:52;;;;;;;26.93;21.95;;;;;;;18.86;68.08;99682.15;2035845;86;27944;-65
2021/07/26 02:26:04;;;;;;;31.57;22.20;;;;;;;18.88;68.20;99679.28;2035824;87;29122;-65
2021/07/26 02:29:14;;;;;;;27.02;21.90;;;;;;;18.86;68.21;99677.20;2035808;87;31552;-64
2021/07/26 02:32:24;;;;;;;26.62;20.90;;;;;;;18.82;68.17;99677.48;2035770;86;33498;-64
2021/07/26 02:35:29;;;;;;;25.17;22.05;;;;;;;18.82;68.23;99678.84;2036053;86;29343;-64
2021/07/26 02:38:33;;;;;;;;;;;;;;;18.79;68.65;99689.98;2038596;87;27916;-64
2021/07/26 02:41:40;;;;;;;27.15;21.68;;;;;;;18.76;68.62;99690.78;2036300;87;28649;-65
2021/07/26 02:44:51;;;;;;;23.67;20.92;;;;;;;18.71;69.07;99696.65;2036223;87;31047;-63
2021/07/26 02:48:02;;;;;;;26.40;22.93;;;;;;;18.66;69.51;99697.57;2035947;86;29783;-65
2021/07/26 02:51:12;;;;;;;28.35;22.58;;;;;;;18.62;69.37;99706.50;2036200;87;29417;-65
2021/07/26 02:54:20;;;;;;;25.85;22.13;;;;;;;18.60;69.13;99707.66;2036030;86;27969;-64
2021/07/26 02:57:28;;;;;;;25.17;22.52;;;;;;;18.60;69.39;99701.72;2035386;87;28704;-65
2021/07/26 03:00:35;;;;;;;28.07;23.70;;;;;;;18.57;69.40;99697.93;2035666;86;31044;-64
2021/07/26 03:03:40;;;;;;;25.57;21.42;;;;;;;18.56;69.59;99693.50;2035602;87;32969;-64
2021/07/26 03:06:47;;;;;;;29.40;23.57;;;;;;;18.54;69.75;99688.72;2035639;86;29399;-64
2021/07/26 03:09:57;;;;;;;30.15;22.93;;;;;;;18.55;69.55;99685.52;2035722;86;27905;-63
2021/07/26 03:13:05;;;;;;;27.62;21.02;;;;;;;18.55;69.84;99682.30;2035480;86;28017;-64
2021/07/26 03:16:13;;;;;;;26.15;23.05;;;;;;;18.53;69.95;99676.18;2035983;86;30882;-65
2021/07/26 03:19:20;;;;;;;28.02;22.73;;;;;;;18.55;69.82;99689.08;2035366;87;32966;-64
2021/07/26 03:22:47;;;;;;;31.42;23.90;;;;;;;18.58;69.98;99683.37;2034656;86;29343;-64
2021/07/26 03:25:53;;;;;;;27.02;23.20;;;;;;;18.59;69.80;99685.08;2004612;88;28123;-64
2021/07/26 03:28:59;;;;;;;29.48;24.15;;;;;;;18.64;69.81;99688.23;2004927;88;28651;-64
2021/07/26 03:32:05;;;;;;;36.35;31.65;;;;;;;18.67;69.98;99692.02;2004552;88;31088;-64
2021/07/26 03:35:12;;;;;;;33.75;29.07;;;;;;;18.71;69.79;99684.92;2005681;88;32957;-63
2021/07/26 03:38:22;;;;;;;29.35;24.10;;;;;;;18.75;69.76;99689.94;2007212;88;29338;-63
2021/07/26 03:41:33;;;;;;;29.42;23.35;;;;;;;18.80;69.92;99688.14;2006867;88;28048;-63
2021/07/26 03:44:41;;;;;;;29.85;23.18;;;;;;;18.85;69.81;99687.22;2006772;88;29107;-63
2021/07/26 03:47:54;;;;;;;28.62;23.67;;;;;;;18.90;69.90;99702.55;2006710;88;30995;-63
2021/07/26 03:51:05;;;;;;;36.50;23.87;;;;;;;18.90;69.89;99693.05;1986744;88;29779;-63
2021/07/26 03:54:09;;;;;;;27.62;24.70;;;;;;;18.92;69.85;99685.62;1986567;89;29520;-63
2021/07/26 03:57:21;;;;;;;28.00;23.53;;;;;;;18.97;69.91;99686.08;1986476;89;28005;-62
2021/07/26 04:00:29;;;;;;;27.20;22.58;;;;;;;19.02;69.87;99689.70;1985670;89;28707;-63
2021/07/26 04:03:34;;;;;;;;;;;;;;;19.05;69.82;99685.34;2026657;87;31117;-63
2021/07/26 04:06:47;;;;;;;27.30;22.25;;;;;;;19.09;69.94;99679.11;1998964;87;32913;-63
2021/07/26 04:10:00;;;;;;;27.00;23.65;;;;;;;19.13;69.99;99679.19;2026634;86;29400;-63
2021/07/26 04:13:03;;;;;;;26.55;23.67;;;;;;;19.13;69.88;99675.95;1980254;89;27982;-62
2021/07/26 04:16:10;;;;;;;;;;;;;;;19.18;69.87;99679.61;2032113;87;28634;-63
2021/07/26 04:19:17;;;;;;;26.10;23.10;;;;;;;19.26;69.92;99685.66;2029487;87;31075;-63
2021/07/26 04:22:22;;;;;;;25.37;22.73;;;;;;;19.31;70.00;99696.06;2007124;88;33014;-64
2021/07/26 04:25:33;;;;;;;27.58;22.55;;;;;;;19.37;69.86;99719.42;2029789;87;29365;-64
2021/07/26 04:28:46;;;;;;;27.85;23.62;;;;;;;19.43;69.89;99709.33;2006864;88;27975;-64
2021/07/26 04:32:00;;;;;;;26.75;23.87;;;;;;;19.50;69.86;99717.73;2006693;88;28759;-64
2021/07/26 04:35:10;;;;;;;30.82;23.65;;;;;;;19.55;69.75;99722.20;2029398;86;27950;-65
2021/07/26 04:38:22;;;;;;;25.95;23.25;;;;;;;19.64;69.78;99726.41;2029879;87;32984;-66
2021/07/26 04:41:29;;;;;;;26.37;23.47;;;;;;;19.70;69.73;99716.27;2006664;88;27996;-64
2021/07/26 04:44:39;;;;;;;27.58;24.18;;;;;;;19.77;69.66;99717.40;2030085;87;27874;-65
2021/07/26 04:47:44;;;;;;;27.40;22.73;;;;;;;19.84;69.65;99715.80;2030512;87;28665;-65
2021/07/26 04:50:48;;;;;;;25.68;22.90;;;;;;;19.89;69.55;99714.86;2019364;86;31069;-64
2021/07/26 04:53:59;;;;;;;29.90;24.60;;;;;;;19.95;69.53;99709.31;2017765;87;32987;-64
2021/07/26 04:57:09;;;;;;;28.70;23.27;;;;;;;20.01;69.35;99706.52;2042632;86;29765;-64
2021/07/26 05:00:20;;;;;;;28.83;23.15;;;;;;;20.07;69.31;99702.33;2012157;88;27766;-64
2021/07/26 05:03:28;;;;;;;31.02;24.10;;;;;;;20.16;69.25;99704.12;2054507;86;28655;-64
2021/07/26 05:06:37;;;;;;;27.87;22.90;;;;;;;20.24;69.18;99706.94;2055527;86;30962;-63
2021/07/26 05:09:46;;;;;;;27.52;23.30;;;;;;;20.31;69.02;99713.45;2056393;86;33039;-65
2021/07/26 05:12:51;;;;;;;29.25;23.50;;;;;;;20.40;68.84;99722.56;2056475;86;29321;-65
2021/07/26 05:15:55;;;;;;;28.87;24.43;;;;;;;20.48;68.70;99714.98;2056531;85;27835;-65
2021/07/26 05:19:00;;;;;;;28.85;24.50;;;;;;;20.55;68.54;99718.81;2056560;86;28649;-65
2021/07/26 05:22:05;;;;;;;27.02;24.12;;;;;;;20.58;68.51;99713.06;2056419;86;31026;-64
2021/07/26 05:25:10;;;;;;;27.62;23.45;;;;;;;20.64;68.56;99712.94;2013929;88;32996;-64
2021/07/26 05:28:20;;;;;;;;;;;;;;;20.71;68.32;99719.45;2058654;86;29383;-63
2021/07/26 05:31:27;;;;;;;26.45;20.75;;;;;;;20.77;68.35;99727.03;2056546;85;27948;-64
2021/07/26 05:34:32;;;;;;;25.27;22.50;;;;;;;20.78;68.23;99723.79;2056478;86;28669;-64
2021/07/26 05:37:36;;;;;;;;;;;;;;;20.83;68.08;99726.06;2058954;86;30752;-64
2021/07/26 05:40:46;;;;;;;28.05;22.90;;;;;;;20.87;68.12;99723.35;2056487;86;33113;-66
2021/07/26 05:43:50;;;;;;;26.90;22.98;;;;;;;20.90;68.01;99723.05;2056373;85;29556;-64
2021/07/26 05:46:53;;;;;;;28.42;22.48;;;;;;;20.97;67.96;99728.22;2059796;86;33807;-65
2021/07/26 05:49:58;;;;;;;26.12;22.35;;;;;;;21.04;67.90;99732.53;2074188;84;28682;-64
2021/07/26 05:53:06;;;;;;;26.50;22.25;;;;;;;21.08;67.70;99737.48;2060553;86;32193;-65
2021/07/26 05:56:11;;;;;;;26.07;23.02;;;;;;;21.12;67.56;99748.07;2050717;86;32962;-66
2021/07/26 05:59:15;;;;;;;32.05;24.40;;;;;;;21.16;67.50;99744.03;2050923;86;29346;-64
2021/07/26 06:02:20;;;;;;;29.65;23.05;;;;;;;21.16;67.28;99746.23;2047750;86;27918;-63
2021/07/26 06:05:27;;;;;;;28.12;23.60;;;;;;;21.21;67.27;99748.47;2049632;86;28666;-63
2021/07/26 06:08:32;;;;;;;29.25;23.25;;;;;;;21.27;67.22;99755.14;2047376;86;55139;-63
2021/07/26 06:11:43;;;;;;;25.72;22.95;;;;;;;21.33;67.14;99754.03;2047385;86;36627;-63
2021/07/26 06:14:49;;;;;;;27.70;24.02;;;;;;;21.36;66.97;99753.69;2047701;86;29370;-64
2021/07/26 06:17:53;;;;;;;29.18;23.87;;;;;;;21.39;66.85;99762.06;2047866;86;27973;-64
2021/07/26 06:20:59;;;;;;;29.60;23.47;;;;;;;21.42;66.83;99761.75;2047786;86;28682;-62
2021/07/26 06:24:06;;;;;;;28.30;23.73;;;;;;;21.47;66.89;99762.10;2047327;86;31028;-62
2021/07/26 06:27:13;;;;;;;28.35;24.27;;;;;;;21.54;66.78;99763.19;2047462;86;33017;-63
2021/07/26 06:30:19;;;;;;;31.00;25.68;;;;;;;21.64;66.71;99764.96;2043395;86;29340;-63
2021/07/26 06:33:24;;;;;;;28.57;22.22;;;;;;;21.73;66.46;99773.55;2043650;86;27994;-63
2021/07/26 06:36:40;;;;;;;;;;;;;;;21.81;66.37;99773.58;2045823;86;28719;-62
2021/07/26 06:39:54;;;;;;;27.58;23.47;;;;;;;21.97;66.31;99776.04;2058115;86;27955;-64
2021/07/26 06:43:02;;;;;;;;;;;;;;;22.12;66.07;99769.46;2049089;86;31457;-63
2021/07/26 06:46:08;;;;;;;27.10;24.15;;;;;;;22.29;65.76;99780.78;2047587;86;35031;-62
2021/07/26 06:49:14;;;;;;;31.45;23.05;;;;;;;22.43;65.18;99775.73;2010022;86;27970;-68
2021/07/26 06:52:24;;;;;;;28.40;22.87;;;;;;;22.58;65.08;99780.05;1959642;89;28675;-69
2021/07/26 06:55:29;;;;;;;25.40;21.85;;;;;;;22.82;65.05;99783.82;1982949;89;27934;-67
2021/07/26 06:58:39;;;;;;;27.35;24.20;;;;;;;23.04;64.68;99784.53;2021479;88;33013;-66
2021/07/26 07:01:45;;;;;;;30.68;24.55;;;;;;;23.27;63.97;99789.85;2009836;88;30038;-67
2021/07/26 07:04:52;;;;;;;26.57;22.48;;;;;;;23.43;63.59;99779.39;2021592;87;27898;-69
2021/07/26 07:08:13;;;;;;;30.00;22.45;;;;;;;23.68;63.37;99774.73;1905093;92;28597;-68
2021/07/26 07:11:24;;;;;;;28.70;22.67;;;;;;;23.96;63.12;99779.80;1902416;92;28234;-68
2021/07/26 07:14:33;;;;;;;30.00;22.17;;;;;;;24.35;62.97;99788.53;1904000;92;29953;-66
2021/07/26 07:17:54;;;;;;;33.05;24.12;;;;;;;24.72;62.42;99784.25;1914923;92;27921;-63
2021/07/26 07:21:09;;;;;;;27.65;23.65;;;;;;;25.16;61.77;99784.09;1911968;92;27974;-63
2021/07/26 07:24:32;;;;;;;26.82;20.92;;;;;;;25.90;61.11;99778.91;1911924;92;27978;-63
2021/07/26 07:27:54;;;;;;;33.67;21.90;;;;;;;26.59;59.63;99768.62;1911679;92;28574;-63
2021/07/26 07:31:01;;;;;;;23.22;20.62;;;;;;;27.22;59.19;99770.19;1912204;92;33052;-62
2021/07/26 07:34:08;;;;;;;25.43;22.65;;;;;;;27.76;58.25;99778.88;1912451;92;29374;-63
2021/07/26 07:37:13;;;;;;;24.57;21.87;;;;;;;28.20;56.99;99778.19;1912067;92;27968;-63
2021/07/26 07:40:23;;;;;;;33.67;21.80;;;;;;;28.62;55.84;99777.61;1980045;89;28660;-63
2021/07/26 07:43:29;;;;;;;31.12;20.60;;;;;;;29.05;55.15;99786.62;2018190;87;31040;-63
2021/07/26 07:46:35;;;;;;;22.95;20.55;;;;;;;29.61;54.71;99791.43;1991396;87;32998;-64
2021/07/26 07:49:39;;;;;;;27.22;20.80;;;;;;;30.33;54.01;99790.63;2014698;85;29388;-64
2021/07/26 07:52:44;;;;;;;25.02;20.62;;;;;;;31.04;52.37;99791.50;2058863;86;27911;-65
2021/07/26 07:55:46;;;;;;;25.43;21.17;;;;;;;31.52;51.03;99788.70;2016580;88;28687;-64
2021/07/26 07:58:54;;;;;;;27.82;19.80;;;;;;;31.57;49.40;99787.49;2020531;88;31041;-65
2021/07/26 08:02:04;;;;;;;26.37;20.30;;;;;;;31.37;49.81;99791.28;2009270;87;33019;-64
2021/07/26 08:05:17;;;;;;;22.60;19.95;;;;;;;31.22;48.91;99789.39;2010322;87;29176;-64
2021/07/26 08:08:29;;;;;;;23.87;20.23;;;;;;;30.99;48.63;99788.58;1993147;89;27955;-65
2021/07/26 08:11:39;;;;;;;23.25;19.62;;;;;;;30.68;48.69;99804.09;2010315;88;28702;-64
2021/07/26 08:14:44;;;;;;;24.37;20.25;;;;;;;30.48;48.44;99802.25;2010336;88;31112;-64
2021/07/26 08:17:50;;;;;;;25.35;19.75;;;;;;;30.35;48.17;99799.55;2010264;88;32958;-66
2021/07/26 08:20:56;;;;;;;25.20;19.55;;;;;;;30.26;48.43;99798.95;2010253;88;30364;-65
2021/07/26 08:23:59;;;;;;;23.75;18.70;;;;;;;30.17;48.14;99799.72;2013264;88;27672;-71
2021/07/26 08:27:03;;;;;;;32.63;20.62;;;;;;;30.13;48.55;99806.19;1995904;87;28686;-75
2021/07/26 08:30:08;;;;;;;26.20;21.17;;;;;;;30.11;48.11;99812.49;2013195;88;31029;-73
2021/07/26 08:33:10;;;;;;;23.60;20.88;;;;;;;29.94;47.96;99810.69;2013038;88;32982;-65
2021/07/26 08:36:12;;;;;;;21.95;19.65;;;;;;;29.84;47.82;99816.65;2013088;88;29375;-64
2021/07/26 08:39:19;;;;;;;24.75;20.20;;;;;;;29.76;48.29;99816.89;2010084;88;28004;-64
2021/07/26 08:42:24;;;;;;;23.30;20.62;;;;;;;29.67;48.40;99816.27;2010316;88;28647;-64
2021/07/26 08:45:28;;;;;;;27.58;20.45;;;;;;;29.66;48.26;99821.47;2010308;88;31040;-63
2021/07/26 08:48:37;;;;;;;27.73;21.45;;;;;;;29.62;48.27;99830.39;2010014;88;33136;-64
2021/07/26 08:51:44;;;;;;;23.57;20.62;;;;;;;29.63;48.48;99823.78;2019976;87;29346;-64
2021/07/26 08:54:48;;;;;;;26.75;17.57;;;;;;;29.76;48.53;99830.70;2071864;85;27711;-64
2021/07/26 08:57:52;;;;;;;30.40;20.43;;;;;;;29.96;48.92;99833.45;2048984;86;28730;-64
2021/07/26 09:00:56;;;;;;;;;;;;;;;30.51;48.73;99827.20;2038688;87;31010;-65
2021/07/26 09:04:03;;;;;;;23.38;19.12;;;;;;;31.23;48.21;99833.98;2036351;87;32971;-64
2021/07/26 09:07:11;;;;;;;24.20;20.90;;;;;;;31.99;47.33;99827.05;2036299;86;29339;-65
2021/07/26 09:10:25;;;;;;;24.40;20.52;;;;;;;32.47;45.93;99826.83;2005505;87;28027;-65
2021/07/26 09:13:44;;;;;;;23.32;19.37;;;;;;;32.91;45.84;99820.31;2036354;87;28646;-65
2021/07/26 09:16:57;;;;;;;23.90;21.40;;;;;;;33.36;45.26;99817.59;2035894;87;31419;-64
2021/07/26 09:20:06;;;;;;;28.75;21.25;;;;;;;33.56;43.62;99820.05;2005492;87;32722;-64
2021/07/26 09:23:17;;;;;;;22.85;18.42;;;;;;;33.47;42.89;99822.34;2036390;87;29333;-64
2021/07/26 09:26:28;;;;;;;22.35;18.52;;;;;;;33.44;43.17;99820.86;2037038;87;27868;-64
2021/07/26 09:29:36;;;;;;;22.90;20.50;;;;;;;33.49;42.11;99816.00;2036443;86;28695;-64
2021/07/26 09:32:46;;;;;;;26.48;19.27;;;;;;;33.42;40.82;99814.73;2036409;87;31024;-64
2021/07/26 09:36:24;;;;;;;20.45;18.23;;;;;;;33.30;41.75;99816.59;2035944;86;34283;-64
2021/07/26 09:39:34;;;;;;;22.60;17.70;;;;;;;33.31;41.62;99817.76;2036208;86;29787;-62
2021/07/26 09:42:38;;;;;;;20.27;18.17;;;;;;;33.32;41.62;99821.36;2036456;87;27844;-63
2021/07/26 09:45:42;;;;;;;22.05;18.35;;;;;;;33.37;41.08;99824.84;2036411;87;28688;-64
2021/07/26 09:48:47;;;;;;;19.82;17.87;;;;;;;33.33;40.65;99818.89;2036491;87;31025;-63
2021/07/26 09:52:11;;;;;;;19.37;17.42;;;;;;;33.34;40.94;99824.20;1993294;88;33056;-64
2021/07/26 09:55:20;;;;;;;19.70;17.70;;;;;;;33.38;40.95;99827.39;1984338;89;29361;-72
2021/07/26 09:58:46;;;;;;;19.70;17.55;;;;;;;33.21;40.78;99823.59;1985601;87;27819;-64
2021/07/26 10:01:51;;;;;;;20.62;16.57;;;;;;;33.04;40.39;99814.55;1990499;89;29124;-63
2021/07/26 10:04:57;;;;;;;21.25;16.67;;;;;;;32.71;39.85;99820.02;2020508;87;31056;-64
2021/07/26 10:08:04;;;;;;;17.48;15.68;;;;;;;32.42;40.28;99827.53;2020436;87;32954;-64
2021/07/26 10:11:09;;;;;;;21.52;18.50;;;;;;;32.26;40.68;99828.16;2020542;87;29337;-64
2021/07/26 10:14:22;;;;;;;20.25;18.12;;;;;;;32.11;40.75;99821.05;2020549;87;27891;-64
2021/07/26 10:17:28;;;;;;;19.50;17.50;;;;;;;31.94;40.34;99822.17;2019941;87;28736;-63
2021/07/26 10:20:39;;;;;;;23.12;18.80;;;;;;;31.59;40.47;99793.66;2001341;87;31196;-63
2021/07/26 10:24:03;;;;;;;18.32;16.42;;;;;;;31.65;40.98;99832.05;2019127;87;35669;-63
2021/07/26 10:27:25;;;;;;;19.40;17.65;;;;;;;31.48;41.06;99831.75;2018711;87;27985;-63
2021/07/26 10:30:37;;;;;;;21.95;19.55;;;;;;;31.37;41.30;99836.09;2019786;87;27852;-63
2021/07/26 10:34:15;;;;;;;20.68;18.48;;;;;;;31.21;41.22;99829.20;2001754;87;28647;-70
2021/07/26 10:37:41;;;;;;;19.67;17.42;;;;;;;31.12;41.22;99829.98;2023176;87;31099;-71
2021/07/26 10:40:43;;;;;;;20.23;18.25;;;;;;;31.05;41.95;99831.41;2023552;87;32961;-63
2021/07/26 10:43:58;;;;;;;20.80;18.75;;;;;;;31.09;42.62;99826.27;2020221;87;29318;-62
2021/07/26 10:47:16;;;;;;;21.50;18.40;;;;;;;31.13;42.23;99822.52;2020168;87;27916;-62
2021/07/26 10:50:23;;;;;;;20.48;18.32;;;;;;;31.19;42.61;99829.96;2020404;87;28664;-63
2021/07/26 10:53:43;;;;;;;21.48;19.12;;;;;;;31.34;42.54;99827.72;2053600;86;31157;-63
2021/07/26 10:57:13;;;;;;;20.40;18.35;;;;;;;31.45;41.56;99828.91;2053570;86;33011;-63
2021/07/26 11:00:24;;;;;;;19.80;17.80;;;;;;;31.51;42.00;99823.86;2052619;86;27957;-62
2021/07/26 11:03:43;;;;;;;20.65;18.48;;;;;;;31.58;41.84;99818.27;2053385;86;27967;-63
2021/07/26 11:06:53;;;;;;;20.12;18.23;;;;;;;31.63;41.82;99817.58;2053787;86;28649;-62
2021/07/26 11:10:01;;;;;;;20.30;18.32;;;;;;;31.76;42.04;99819.41;2053429;86;28192;-62
2021/07/26 11:13:07;;;;;;;19.82;17.90;;;;;;;31.86;42.33;99821.62;2053530;86;32959;-63
2021/07/26 11:16:14;;;;;;;18.75;17.02;;;;;;;31.97;41.28;99816.73;2053778;86;29344;-63
2021/07/26 11:19:49;;;;;;;20.32;18.17;;;;;;;31.90;41.47;99817.33;2054080;86;27769;-62
2021/07/26 11:23:00;;;;;;;19.87;17.97;;;;;;;31.93;41.62;99809.95;2054058;86;28722;-63
2021/07/26 11:26:18;;;;;;;19.62;17.82;;;;;;;31.91;41.37;99810.20;2053719;86;31030;-63
2021/07/26 11:29:29;;;;;;;19.02;17.12;;;;;;;31.91;41.47;99810.72;2053491;86;33021;-61
2021/07/26 11:32:37;;;;;;;19.42;17.40;;;;;;;31.93;41.54;99809.42;2053817;86;29343;-62
2021/07/26 11:35:42;;;;;;;21.15;18.15;;;;;;;31.99;41.57;99797.95;2053885;86;27848;-63
2021/07/26 11:39:02;;;;;;;19.52;17.67;;;;;;;32.00;41.23;99796.89;2053357;86;28705;-61
2021/07/26 11:42:06;;;;;;;17.73;16.05;;;;;;;31.84;41.23;99792.78;2053693;86;31039;-61
2021/07/26 11:45:15;;;;;;;18.10;16.23;;;;;;;31.72;41.31;99781.61;2053675;86;32995;-62
2021/07/26 11:48:24;;;;;;;87.65;68.80;;;;;;;31.60;41.39;99789.81;2053621;86;29318;-62
2021/07/26 11:51:34;;;;;;;63.10;46.85;;;;;;;31.63;41.71;99792.66;2059908;84;27922;-61
2021/07/26 11:54:44;;;;;;;22.05;18.50;;;;;;;31.61;41.54;99788.70;2080256;85;28808;-61
2021/07/26 11:58:07;;;;;;;20.52;18.42;;;;;;;31.46;41.01;99781.30;2059677;86;31111;-61
2021/07/26 12:01:12;;;;;;;18.20;16.50;;;;;;;31.33;41.29;99780.34;2046744;86;34435;-61
2021/07/26 12:04:16;;;;;;;20.65;18.73;;;;;;;31.28;41.50;99773.80;2047120;86;29336;-61
2021/07/26 12:07:44;;;;;;;18.57;16.67;;;;;;;31.22;41.58;99766.70;2047188;86;27926;-61
2021/07/26 12:10:49;;;;;;;18.90;17.05;;;;;;;31.16;41.37;99762.61;2047274;86;29408;-61
2021/07/26 12:13:54;;;;;;;17.02;15.48;;;;;;;31.10;41.85;99763.50;2021091;86;31800;-61
2021/07/26 12:17:00;;;;;;;18.10;16.30;;;;;;;31.05;41.87;99762.25;2047216;86;32988;-61
2021/07/26 12:20:16;;;;;;;19.17;17.35;;;;;;;31.02;42.01;99769.61;2047256;86;29337;-61
2021/07/26 12:23:25;;;;;;;18.07;16.17;;;;;;;31.00;41.95;99770.36;2046900;86;28022;-60
2021/07/26 12:26:29;;;;;;;18.65;16.85;;;;;;;30.91;41.89;99757.34;2047247;86;28658;-64
2021/07/26 12:29:40;;;;;;;23.45;17.30;;;;;;;30.88;41.74;99769.39;2046822;86;31027;-60
2021/07/26 12:32:54;;;;;;;15.20;13.72;;;;;;;30.76;42.02;99771.50;2046699;86;33139;-61
2021/07/26 12:36:17;;;;;;;18.48;16.67;;;;;;;30.68;42.08;99768.98;2046899;86;29760;-61
2021/07/26 12:39:24;;;;;;;17.50;15.58;;;;;;;30.70;42.50;99772.37;2047065;86;27964;-60
2021/07/26 12:42:31;;;;;;;21.35;17.70;;;;;;;30.75;42.46;99768.94;2041957;86;28698;-61
2021/07/26 12:45:44;;;;;;;20.02;18.17;;;;;;;30.74;42.21;99776.41;2014917;86;33083;-60
2021/07/26 12:48:52;;;;;;;22.25;19.62;;;;;;;30.73;42.12;99780.23;2046738;86;33495;-61
2021/07/26 12:51:57;;;;;;;19.77;17.87;;;;;;;30.74;42.37;99779.69;2011150;86;29343;-60
2021/07/26 12:55:03;;;;;;;17.57;15.80;;;;;;;30.66;42.20;99784.95;2007064;88;27872;-61
2021/07/26 12:58:08;;;;;;;16.60;15.03;;;;;;;30.65;42.00;99781.03;2018576;87;28647;-61
2021/07/26 13:01:19;;;;;;;14.95;13.38;;;;;;;30.65;42.20;99787.94;2006917;88;32035;-61
2021/07/26 13:04:28;;;;;;;14.73;13.30;;;;;;;30.63;41.74;99795.06;2018144;87;29977;-61
2021/07/26 13:07:34;;;;;;;15.90;14.33;;;;;;;30.57;41.67;99782.97;2006826;88;29418;-61
2021/07/26 13:10:39;;;;;;;17.75;14.75;;;;;;;30.52;42.03;99786.92;2018189;87;27904;-62
2021/07/26 13:13:44;;;;;;;17.57;15.65;;;;;;;30.50;42.09;99786.81;2006722;88;28642;-62
2021/07/26 13:16:52;;;;;;;15.93;14.23;;;;;;;30.45;42.01;99779.19;2018348;87;31781;-61
2021/07/26 13:20:00;;;;;;;15.80;14.25;;;;;;;30.40;41.86;99773.45;2006693;88;32950;-60
2021/07/26 13:23:05;;;;;;;15.68;14.18;;;;;;;30.36;41.68;99771.67;2018049;87;29333;-61
2021/07/26 13:26:14;;;;;;;16.02;14.35;;;;;;;30.35;41.79;99769.98;2006540;88;27935;-61
2021/07/26 13:29:19;;;;;;;20.02;15.65;;;;;;;30.35;41.70;99774.13;2018411;87;28741;-61
2021/07/26 13:32:24;;;;;;;16.85;15.15;;;;;;;30.31;41.63;99774.24;2006486;88;30976;-61
2021/07/26 13:35:28;;;;;;;15.98;14.38;;;;;;;30.26;41.63;99776.29;2018509;87;33108;-61
2021/07/26 13:38:35;;;;;;;17.15;15.45;;;;;;;30.15;41.68;99768.14;2006933;88;29383;-61
2021/07/26 13:41:40;;;;;;;15.25;13.30;;;;;;;30.09;41.50;99762.13;2018417;87;27839;-61
2021/07/26 13:44:50;;;;;;;15.95;12.82;;;;;;;30.01;41.69;99762.36;2006900;88;28689;-61
2021/07/26 13:47:57;;;;;;;17.75;16.00;;;;;;;29.93;41.62;99757.89;2006603;88;31082;-61
2021/07/26 13:51:05;;;;;;;16.93;15.18;;;;;;;29.88;42.08;99767.90;2017407;87;33375;-61
2021/07/26 13:54:13;;;;;;;15.78;14.20;;;;;;;29.86;42.08;99764.81;2046543;85;29560;-62
2021/07/26 13:57:23;;;;;;;13.03;11.63;;;;;;;29.89;42.26;99764.08;2050641;85;27828;-61
2021/07/26 14:00:27;;;;;;;17.02;14.90;;;;;;;29.84;41.65;99759.20;2050265;86;28663;-61
2021/07/26 14:03:33;;;;;;;15.48;12.28;;;;;;;29.81;42.04;99769.30;2050595;86;31022;-61
2021/07/26 14:06:40;;;;;;;17.37;15.72;;;;;;;29.77;41.72;99764.75;2049971;86;33113;-61
2021/07/26 14:09:51;;;;;;;16.17;14.65;;;;;;;29.76;42.32;99753.91;2050226;86;29336;-61
2021/07/26 14:12:55;;;;;;;16.90;15.20;;;;;;;29.75;42.15;99759.97;2050563;86;28001;-61
2021/07/26 14:16:00;;;;;;;16.07;14.50;;;;;;;29.77;42.24;99760.61;2050557;85;28696;-61
2021/07/26 14:19:11;;;;;;;14.23;12.93;;;;;;;29.77;42.31;99755.09;2050536;86;31034;-61
2021/07/26 14:22:17;;;;;;;15.38;13.28;;;;;;;29.77;42.04;99749.56;2050202;86;32951;-60
2021/07/26 14:25:22;;;;;;;18.75;16.90;;;;;;;29.77;41.93;99746.80;2050558;86;29392;-60
2021/07/26 14:28:28;;;;;;;17.73;15.95;;;;;;;29.77;42.18;99744.55;2050282;86;27925;-60
2021/07/26 14:31:35;;;;;;;17.82;13.88;;;;;;;29.74;42.12;99737.56;2050645;86;28644;-60